Time;durP1;ratioP1;P1;durP2;ratioP2;P2;SDS_P1;SDS_P2;PMS_P1;PMS_P2;Temp;Humidity;BMP_temperature;BMP_pressure;BME280_temperature;BME280_humidity;BME280_pressure;Samples;Min_cycle;Max_cycle;Signal;HPM_P1;HPM_P2
2020/12/26 00:01:20;;;;;;;5.63;1.45;;;22.20;99.90;;;;;;4934668;29;20028;-77
2020/12/26 00:03:48;;;;;;;4.88;0.88;;;22.00;99.90;;;;;;4949891;28;20115;-78
2020/12/26 00:06:20;;;;;;;8.00;1.00;;;22.00;99.90;;;;;;4947908;28;20452;-78
2020/12/26 00:08:48;;;;;;;6.03;0.77;;;21.80;99.90;;;;;;4950445;28;20023;-78
2020/12/26 00:11:18;;;;;;;9.48;1.05;;;21.60;99.90;;;;;;4950002;28;20384;-77
2020/12/26 00:13:46;;;;;;;5.70;1.15;;;21.40;99.90;;;;;;4950167;29;20042;-77
2020/12/26 00:16:14;;;;;;;7.35;1.13;;;21.30;99.90;;;;;;4951605;29;20130;-77
2020/12/26 00:18:45;;;;;;;5.57;0.70;;;21.20;99.90;;;;;;4940250;29;20035;-77
2020/12/26 00:21:14;;;;;;;6.90;1.30;;;21.10;99.90;;;;;;4955730;28;20059;-78
2020/12/26 00:23:42;;;;;;;7.97;1.05;;;21.20;99.90;;;;;;4954719;28;20114;-78
2020/12/26 00:26:13;;;;;;;5.32;1.05;;;21.50;99.90;;;;;;4942039;29;20312;-77
2020/12/26 00:28:41;;;;;;;7.25;1.23;;;21.60;99.90;;;;;;4955754;28;20085;-78
2020/12/26 00:31:13;;;;;;;5.97;0.95;;;21.60;99.90;;;;;;4938920;29;20023;-77
2020/12/26 00:33:40;;;;;;;5.00;1.10;;;21.50;99.90;;;;;;4938911;29;20088;-78
2020/12/26 00:36:07;;;;;;;4.53;0.63;;;21.30;99.90;;;;;;4955095;28;20027;-78
2020/12/26 00:38:35;;;;;;;4.50;1.02;;;21.30;99.90;;;;;;4954937;28;20035;-77
2020/12/26 00:41:03;;;;;;;5.43;1.33;;;21.30;99.90;;;;;;4955951;28;20167;-78
2020/12/26 00:43:30;;;;;;;4.53;0.80;;;21.20;99.90;;;;;;4957143;28;20016;-77
2020/12/26 00:45:57;;;;;;;9.85;1.13;;;21.10;99.90;;;;;;4925899;29;20055;-77
2020/12/26 00:48:24;;;;;;;5.70;0.90;;;21.00;99.90;;;;;;4951988;28;20026;-77
2020/12/26 00:50:52;;;;;;;5.53;1.05;;;21.10;99.90;;;;;;4981164;23;21198;-77
2020/12/26 00:53:19;;;;;;;3.60;0.77;;;21.10;99.90;;;;;;4993392;23;20078;-78
2020/12/26 00:55:46;;;;;;;11.07;1.45;;;21.20;99.90;;;;;;4962622;28;20058;-78
2020/12/26 00:58:13;;;;;;;5.07;0.90;;;21.20;99.90;;;;;;4979680;23;20101;-78
2020/12/26 01:00:41;;;;;;;5.97;1.10;;;21.40;99.90;;;;;;4970282;28;20027;-78
2020/12/26 01:03:08;;;;;;;5.10;0.88;;;22.00;99.90;;;;;;4971834;28;20073;-78
2020/12/26 01:05:35;;;;;;;3.88;0.80;;;22.80;99.90;;;;;;4972735;28;20105;-77
2020/12/26 01:08:03;;;;;;;6.20;1.02;;;22.80;99.90;;;;;;4985912;23;20051;-78
2020/12/26 01:10:30;;;;;;;5.07;1.10;;;22.50;99.90;;;;;;4975021;28;20097;-78
2020/12/26 01:12:57;;;;;;;7.15;1.17;;;22.40;99.90;;;;;;4972865;28;20034;-78
2020/12/26 01:15:24;;;;;;;6.65;1.00;;;22.40;99.90;;;;;;4972775;28;20429;-79
2020/12/26 01:17:52;;;;;;;8.10;1.60;;;22.30;99.90;;;;;;4952758;28;20050;-77
2020/12/26 01:20:19;;;;;;;5.07;0.82;;;22.30;99.90;;;;;;4971739;28;20042;-76
2020/12/26 01:22:46;;;;;;;7.30;1.17;;;22.30;99.90;;;;;;4972874;28;20139;-78
2020/12/26 01:25:14;;;;;;;5.68;0.95;;;22.40;99.90;;;;;;4979592;23;20141;-78
2020/12/26 01:27:41;;;;;;;6.68;0.93;;;22.50;99.90;;;;;;4981949;28;20050;-78
2020/12/26 01:30:09;;;;;;;4.68;0.88;;;22.50;99.90;;;;;;4974447;28;20089;-78
2020/12/26 01:32:36;;;;;;;5.70;0.80;;;22.50;99.90;;;;;;4972074;28;20027;-78
2020/12/26 01:35:04;;;;;;;4.18;0.98;;;22.60;99.90;;;;;;4974116;28;20065;-77
2020/12/26 01:37:31;;;;;;;7.18;1.00;;;22.80;99.90;;;;;;4964610;28;20018;-78
2020/12/26 01:39:58;;;;;;;6.63;0.85;;;23.20;99.90;;;;;;4974537;28;20480;-75
2020/12/26 01:42:25;;;;;;;7.30;1.02;;;23.30;99.90;;;;;;4972666;28;20069;-79
2020/12/26 01:44:53;;;;;;;6.93;1.30;;;23.20;99.90;;;;;;4962987;28;20086;-76
2020/12/26 01:47:20;;;;;;;6.60;1.50;;;23.20;99.90;;;;;;4961945;28;20105;-77
2020/12/26 01:49:48;;;;;;;8.35;1.08;;;23.30;99.90;;;;;;4958405;28;20034;-76
2020/12/26 01:52:16;;;;;;;6.03;1.30;;;23.20;99.90;;;;;;4959134;28;20379;-76
2020/12/26 01:54:44;;;;;;;4.15;0.80;;;23.10;99.90;;;;;;4956558;28;20408;-76
2020/12/26 01:57:12;;;;;;;9.05;1.08;;;23.60;99.90;;;;;;4967367;23;20408;-77
2020/12/26 01:59:39;;;;;;;5.63;1.48;;;23.60;99.90;;;;;;4969260;28;20030;-77
2020/12/26 02:02:09;;;;;;;4.82;0.82;;;23.70;99.90;;;;;;4970033;28;20050;-77
2020/12/26 02:04:37;;;;;;;9.35;1.20;;;23.50;99.90;;;;;;4968418;28;20083;-77
2020/12/26 02:07:05;;;;;;;7.20;1.40;;;23.50;99.90;;;;;;4970666;28;20030;-77
2020/12/26 02:09:33;;;;;;;9.38;1.25;;;23.20;99.90;;;;;;4954293;28;20034;-77
2020/12/26 02:12:01;;;;;;;6.65;1.00;;;22.90;99.90;;;;;;4969839;28;20077;-77
2020/12/26 02:14:28;;;;;;;9.93;1.42;;;22.70;99.90;;;;;;4967298;28;20110;-76
2020/12/26 02:16:55;;;;;;;8.13;1.30;;;22.70;99.90;;;;;;4971290;28;20073;-77
2020/12/26 02:19:26;;;;;;;7.20;0.90;;;23.30;99.90;;;;;;4973555;28;20061;-77
2020/12/26 02:21:53;;;;;;;9.60;1.98;;;24.40;99.90;;;;;;4971660;28;20026;-77
2020/12/26 02:24:21;;;;;;;7.88;1.02;;;24.30;99.90;;;;;;4973555;28;20030;-77
2020/12/26 02:26:48;;;;;;;6.50;1.10;;;24.00;99.90;;;;;;4969251;28;20039;-76
2020/12/26 02:29:15;;;;;;;4.95;0.65;;;23.70;99.90;;;;;;4973257;28;20054;-76
2020/12/26 02:31:43;;;;;;;7.20;1.15;;;23.70;99.90;;;;;;4980249;28;20054;-76
2020/12/26 02:34:10;;;;;;;11.30;2.25;;;23.50;99.90;;;;;;4961751;28;20027;-76
2020/12/26 02:36:38;;;;;;;4.85;1.02;;;24.00;99.90;;;;;;4967590;28;20554;-76
2020/12/26 02:39:07;;;;;;;6.85;1.20;;;24.40;99.90;;;;;;4972959;28;20023;-76
2020/12/26 02:41:35;;;;;;;8.07;1.23;;;24.40;99.90;;;;;;4953199;28;20594;-77
2020/12/26 02:44:02;;;;;;;8.43;1.13;;;24.70;99.90;;;;;;4972917;28;20026;-76
2020/12/26 02:46:30;;;;;;;6.88;1.08;;;25.30;99.90;;;;;;4969116;28;20043;-76
2020/12/26 02:48:57;;;;;;;10.48;1.88;;;25.30;99.90;;;;;;4972922;28;20604;-76
2020/12/26 02:51:24;;;;;;;7.40;1.23;;;24.90;99.90;;;;;;4969434;28;20031;-77
2020/12/26 02:53:51;;;;;;;11.30;1.67;;;24.60;99.90;;;;;;4962570;28;20030;-77
2020/12/26 02:56:19;;;;;;;7.82;1.30;;;25.00;99.90;;;;;;4952139;28;20022;-76
2020/12/26 02:58:46;;;;;;;6.35;1.40;;;25.80;99.90;;;;;;5002553;23;20165;-75
2020/12/26 03:01:14;;;;;;;5.63;0.75;;;26.10;99.90;;;;;;4973622;23;20210;-76
2020/12/26 03:03:41;;;;;;;8.27;0.77;;;25.70;99.90;;;;;;4969634;28;20045;-76
2020/12/26 03:06:10;;;;;;;5.88;0.85;;;25.00;99.90;;;;;;4977832;23;20057;-75
2020/12/26 03:08:37;;;;;;;5.28;0.90;;;24.40;99.90;;;;;;4968898;28;20377;-74
2020/12/26 03:11:05;;;;;;;6.45;1.17;;;24.20;99.90;;;;;;4970528;28;20510;-75
2020/12/26 03:13:32;;;;;;;8.48;0.88;;;24.60;99.90;;;;;;4951714;28;20049;-78
2020/12/26 03:16:00;;;;;;;5.90;0.88;;;24.80;99.90;;;;;;4980700;23;20069;-78
2020/12/26 03:18:27;;;;;;;6.82;0.90;;;25.50;99.90;;;;;;4964047;28;20093;-78
2020/12/26 03:20:54;;;;;;;7.45;0.95;;;25.60;99.90;;;;;;4969846;28;20471;-77
2020/12/26 03:23:22;;;;;;;9.75;1.25;;;25.70;99.90;;;;;;4970515;28;20101;-77
2020/12/26 03:25:49;;;;;;;6.05;1.08;;;25.70;99.90;;;;;;4970209;28;20105;-77
2020/12/26 03:28:16;;;;;;;4.65;0.70;;;25.80;99.90;;;;;;4969431;28;20500;-77
2020/12/26 03:30:43;;;;;;;5.38;0.98;;;25.70;99.90;;;;;;4989826;23;20041;-77
2020/12/26 03:33:10;;;;;;;6.25;1.33;;;25.90;99.90;;;;;;4976823;28;20105;-77
2020/12/26 03:35:38;;;;;;;6.47;0.90;;;25.90;99.90;;;;;;4989435;28;20053;-77
2020/12/26 03:38:05;;;;;;;5.88;1.02;;;25.80;99.90;;;;;;4976489;28;20034;-77
2020/12/26 03:40:32;;;;;;;7.93;2.20;;;25.60;99.90;;;;;;4972581;28;20420;-78
2020/12/26 03:42:59;;;;;;;6.45;1.27;;;25.60;99.90;;;;;;4955554;28;20046;-79
2020/12/26 03:45:27;;;;;;;8.95;1.23;;;25.60;99.90;;;;;;4955007;28;20377;-78
2020/12/26 03:47:54;;;;;;;8.45;1.20;;;26.10;99.90;;;;;;4972518;28;20027;-80
2020/12/26 03:50:21;;;;;;;5.28;1.27;;;26.00;99.90;;;;;;4972876;28;20488;-79
2020/12/26 03:52:49;;;;;;;5.82;0.75;;;26.20;99.90;;;;;;4969795;28;20125;-77
2020/12/26 03:55:16;;;;;;;6.00;1.08;;;26.10;99.90;;;;;;4977831;28;20037;-81
2020/12/26 03:57:43;;;;;;;6.22;0.88;;;25.90;99.90;;;;;;4966436;28;20054;-81
2020/12/26 04:00:10;;;;;;;7.43;0.80;;;25.90;99.90;;;;;;4976329;28;20066;-81
2020/12/26 04:02:38;;;;;;;4.88;0.90;;;25.90;99.90;;;;;;4976955;28;20030;-81
2020/12/26 04:05:05;;;;;;;4.30;1.10;;;25.90;99.90;;;;;;4981771;23;20086;-82
2020/12/26 04:07:32;;;;;;;4.13;0.98;;;25.80;99.90;;;;;;4944583;29;20058;-81
2020/12/26 04:10:00;;;;;;;6.53;0.73;;;25.70;99.90;;;;;;4920433;29;20115;-81
2020/12/26 04:12:27;;;;;;;6.22;0.93;;;25.70;99.90;;;;;;4919144;29;20028;-81
2020/12/26 04:14:54;;;;;;;8.68;1.13;;;25.70;99.90;;;;;;4937837;29;20024;-82
2020/12/26 04:17:23;;;;;;;5.20;1.08;;;25.50;99.90;;;;;;4927910;29;20023;-82
2020/12/26 04:19:50;;;;;;;14.05;1.02;;;24.80;99.90;;;;;;4937711;29;20485;-83
2020/12/26 04:22:18;;;;;;;6.10;1.35;;;24.20;99.90;;;;;;4913413;29;20446;-80
2020/12/26 04:24:45;;;;;;;7.93;0.98;;;23.80;99.90;;;;;;4918607;29;20039;-81
2020/12/26 04:27:12;;;;;;;3.92;0.52;;;23.70;99.90;;;;;;4908529;29;20032;-82
2020/12/26 04:29:39;;;;;;;14.40;1.75;;;24.20;99.90;;;;;;4937329;29;20020;-82
2020/12/26 04:32:07;;;;;;;7.32;1.13;;;24.60;99.90;;;;;;4935433;29;20035;-81
2020/12/26 04:34:34;;;;;;;6.15;0.98;;;24.60;99.90;;;;;;4904464;29;20076;-82
2020/12/26 04:37:01;;;;;;;5.47;1.00;;;24.50;99.90;;;;;;4935027;29;20058;-82
2020/12/26 04:39:28;;;;;;;7.40;1.30;;;24.50;99.90;;;;;;4932220;29;20032;-80
2020/12/26 04:41:56;;;;;;;5.78;1.05;;;24.40;99.90;;;;;;4905599;29;20023;-82
2020/12/26 04:44:24;;;;;;;5.40;1.52;;;23.80;99.90;;;;;;4937499;29;20099;-82
2020/12/26 04:46:52;;;;;;;7.78;0.85;;;23.40;99.90;;;;;;4935303;29;20446;-83
2020/12/26 04:49:21;;;;;;;8.25;0.80;;;23.30;99.90;;;;;;4937118;29;20175;-81
2020/12/26 04:51:56;;;;;;;4.68;1.25;;;23.20;99.90;;;;;;4935141;29;20401;-78
2020/12/26 04:54:28;;;;;;;7.50;1.10;;;23.10;99.90;;;;;;4917979;29;20059;-82
2020/12/26 04:56:57;;;;;;;6.80;0.85;;;23.00;99.90;;;;;;4921749;29;20075;-80
2020/12/26 04:59:25;;;;;;;7.07;1.13;;;22.80;99.90;;;;;;4936725;29;20035;-83
2020/12/26 05:01:53;;;;;;;5.68;0.88;;;22.80;99.90;;;;;;4934920;29;20024;-81
2020/12/26 05:04:20;;;;;;;7.97;0.98;;;22.50;99.90;;;;;;4939006;29;20063;-80
2020/12/26 05:06:54;;;;;;;7.18;1.30;;;22.30;99.90;;;;;;4986376;23;20090;-82
2020/12/26 05:09:23;;;;;;;7.68;1.17;;;22.30;99.90;;;;;;4994443;23;20061;-81
2020/12/26 05:12:01;;;;;;;7.07;0.80;;;22.10;99.90;;;;;;4989577;28;20037;-81
2020/12/26 05:14:30;;;;;;;6.63;1.42;;;22.10;99.90;;;;;;4991639;23;20058;-81
2020/12/26 05:17:00;;;;;;;12.00;1.50;;;22.00;99.90;;;;;;4971405;28;20380;-79
2020/12/26 05:19:28;;;;;;;7.65;1.48;;;22.00;99.90;;;;;;4974904;28;20077;-79
2020/12/26 05:21:57;;;;;;;7.15;1.10;;;22.00;99.90;;;;;;4987424;23;20461;-78
2020/12/26 05:24:24;;;;;;;8.68;1.17;;;22.00;99.90;;;;;;4973460;28;20496;-79
2020/12/26 05:26:55;;;;;;;6.72;0.93;;;21.90;99.90;;;;;;4972780;28;20041;-80
2020/12/26 05:29:24;;;;;;;7.55;1.42;;;21.90;99.90;;;;;;4974745;28;20483;-79
2020/12/26 05:31:59;;;;;;;6.28;1.42;;;21.80;99.90;;;;;;4971053;28;20043;-80
2020/12/26 05:34:38;;;;;;;5.35;0.98;;;21.70;99.90;;;;;;4974834;28;20023;-81
2020/12/26 05:37:07;;;;;;;5.60;1.10;;;21.70;99.90;;;;;;4972429;28;20037;-81
2020/12/26 05:39:38;;;;;;;7.80;1.33;;;21.60;99.90;;;;;;4981994;23;20055;-81
2020/12/26 05:42:06;;;;;;;8.98;1.00;;;21.60;99.90;;;;;;4972578;28;20022;-82
2020/12/26 05:44:36;;;;;;;6.22;1.38;;;21.60;99.90;;;;;;4957224;28;20482;-81
2020/12/26 05:47:07;;;;;;;9.45;1.67;;;21.50;99.90;;;;;;4972192;28;20031;-81
2020/12/26 05:49:36;;;;;;;9.65;1.40;;;21.50;99.90;;;;;;4974351;28;20027;-81
2020/12/26 05:52:12;;;;;;;6.72;1.10;;;21.60;99.90;;;;;;4972041;28;20392;-81
2020/12/26 05:54:49;;;;;;;6.95;0.77;;;21.50;99.90;;;;;;4971611;28;20026;-80
2020/12/26 05:57:18;;;;;;;6.55;0.90;;;21.50;99.90;;;;;;4955980;28;20538;-80
2020/12/26 05:59:51;;;;;;;10.68;1.33;;;21.40;99.90;;;;;;4956791;28;20486;-81
2020/12/26 06:02:25;;;;;;;8.40;1.27;;;21.50;99.90;;;;;;4972255;28;20034;-80
2020/12/26 06:04:56;;;;;;;9.85;1.30;;;21.40;99.90;;;;;;4971708;28;20034;-81
2020/12/26 06:07:29;;;;;;;6.20;0.90;;;21.40;99.90;;;;;;4971818;28;20399;-81
2020/12/26 06:09:59;;;;;;;5.30;0.95;;;21.40;99.90;;;;;;4956493;28;20507;-81
2020/12/26 06:12:28;;;;;;;6.63;1.13;;;21.40;99.90;;;;;;4993201;23;20393;-80
2020/12/26 06:14:56;;;;;;;8.15;1.65;;;21.30;99.90;;;;;;4973943;28;20027;-82
2020/12/26 06:17:29;;;;;;;8.73;1.25;;;21.40;99.90;;;;;;4973170;28;20410;-81
2020/12/26 06:19:59;;;;;;;6.53;1.80;;;21.30;99.90;;;;;;4973940;28;20023;-82
2020/12/26 06:22:48;;;;;;;4.72;0.95;;;21.30;99.90;;;;;;4973518;28;20023;-81
2020/12/26 06:25:21;;;;;;;7.78;0.95;;;21.30;99.90;;;;;;4973950;28;20054;-81
2020/12/26 06:28:04;;;;;;;8.57;1.27;;;21.30;99.90;;;;;;4973632;28;20022;-81
2020/12/26 06:30:32;;;;;;;12.27;2.20;;;21.30;99.90;;;;;;4974004;28;20019;-83
2020/12/26 06:32:59;;;;;;;9.13;0.90;;;21.30;99.90;;;;;;4973310;28;20415;-83
2020/12/26 06:35:28;;;;;;;5.22;0.68;;;21.30;99.90;;;;;;4973455;28;20027;-83
2020/12/26 06:38:13;;;;;;;7.20;1.13;;;21.40;99.90;;;;;;4973112;28;20034;-82
2020/12/26 06:40:55;;;;;;;6.32;1.15;;;21.30;99.90;;;;;;4973601;28;20124;-81
2020/12/26 06:43:40;;;;;;;15.82;2.17;;;21.30;99.90;;;;;;4972934;28;20022;-80
2020/12/26 06:46:39;;;;;;;13.82;2.13;;;21.30;99.90;;;;;;4973484;28;20034;-80
2020/12/26 06:49:22;;;;;;;13.98;1.50;;;21.30;99.90;;;;;;4955868;28;20022;-82
2020/12/26 06:51:50;;;;;;;9.95;1.50;;;21.30;99.90;;;;;;4958562;28;20050;-81
2020/12/26 06:54:37;;;;;;;6.03;1.00;;;21.30;99.90;;;;;;4992815;28;20019;-81
2020/12/26 06:57:05;;;;;;;5.70;1.10;;;21.30;99.90;;;;;;4985252;28;20027;-80
2020/12/26 06:59:33;;;;;;;11.70;1.52;;;21.30;99.90;;;;;;4973339;28;20062;-81
2020/12/26 07:02:08;;;;;;;7.72;1.00;;;21.30;99.90;;;;;;4960835;28;20483;-79
2020/12/26 07:04:40;;;;;;;7.13;1.48;;;21.30;99.90;;;;;;4984292;28;20031;-80
2020/12/26 07:07:11;;;;;;;11.18;1.70;;;21.30;99.90;;;;;;4973180;28;20069;-81
2020/12/26 07:09:38;;;;;;;5.57;1.55;;;21.30;99.90;;;;;;4974771;28;20049;-81
2020/12/26 07:12:09;;;;;;;5.95;0.95;;;21.20;99.90;;;;;;4980094;23;20086;-80
2020/12/26 07:14:38;;;;;;;8.88;1.30;;;21.10;99.90;;;;;;4980936;23;20057;-79
2020/12/26 07:17:07;;;;;;;9.00;1.52;;;21.00;99.90;;;;;;4978916;23;20082;-81
2020/12/26 07:19:42;;;;;;;6.63;1.35;;;21.00;99.90;;;;;;4991339;23;20431;-82
2020/12/26 07:22:16;;;;;;;6.25;1.10;;;20.80;99.90;;;;;;4953864;28;20031;-80
2020/12/26 07:24:46;;;;;;;11.48;2.17;;;20.80;99.90;;;;;;4973301;28;20062;-80
2020/12/26 07:27:17;;;;;;;7.90;1.65;;;20.80;99.90;;;;;;4965046;28;20392;-80
2020/12/26 07:30:12;;;;;;;8.40;1.27;;;20.70;99.90;;;;;;4979109;23;20058;-81
2020/12/26 07:32:53;;;;;;;8.07;1.63;;;20.70;99.90;;;;;;4991794;28;20069;-82
2020/12/26 07:35:23;;;;;;;9.57;1.20;;;20.90;99.90;;;;;;4996456;28;20034;-79
2020/12/26 07:38:11;;;;;;;8.65;1.13;;;20.90;99.90;;;;;;4983178;28;20096;-82
2020/12/26 07:40:46;;;;;;;5.82;2.00;;;20.90;99.90;;;;;;4959448;28;20090;-82
2020/12/26 07:43:18;;;;;;;5.13;1.23;;;20.90;99.90;;;;;;4976798;28;20033;-81
2020/12/26 07:45:47;;;;;;;6.30;1.10;;;21.00;99.90;;;;;;4993655;23;20611;-79
2020/12/26 07:48:14;;;;;;;13.15;1.65;;;20.90;99.90;;;;;;4973655;28;20023;-80
2020/12/26 07:50:43;;;;;;;8.93;1.52;;;20.80;99.90;;;;;;4959472;28;20027;-82
2020/12/26 07:53:12;;;;;;;11.02;1.75;;;20.80;99.90;;;;;;4974640;28;20480;-82
2020/12/26 07:55:40;;;;;;;9.73;1.58;;;20.80;99.90;;;;;;4976712;28;20049;-81
2020/12/26 07:58:16;;;;;;;6.00;1.05;;;20.70;99.90;;;;;;4974283;28;20022;-81
2020/12/26 08:00:45;;;;;;;10.70;2.15;;;20.60;99.90;;;;;;4976750;28;20029;-81
2020/12/26 08:03:13;;;;;;;6.78;1.10;;;20.60;99.90;;;;;;4972977;28;20114;-83
2020/12/26 08:05:46;;;;;;;10.45;1.20;;;20.70;99.90;;;;;;4959214;28;20043;-82
2020/12/26 08:08:21;;;;;;;9.02;1.58;;;20.80;99.90;;;;;;4974285;28;20097;-81
2020/12/26 08:10:55;;;;;;;13.15;1.52;;;20.80;99.90;;;;;;4976507;28;20521;-82
2020/12/26 08:13:22;;;;;;;10.20;1.98;;;20.80;99.90;;;;;;4974281;28;20033;-82
2020/12/26 08:16:00;;;;;;;7.95;1.88;;;20.80;99.90;;;;;;4976250;28;20031;-82
2020/12/26 08:18:31;;;;;;;11.48;1.42;;;20.80;99.90;;;;;;4981464;23;20077;-84
2020/12/26 08:20:58;;;;;;;11.82;2.38;;;20.80;99.90;;;;;;4976258;28;20066;-82
2020/12/26 08:23:25;;;;;;;10.13;1.90;;;20.80;99.90;;;;;;4972608;28;20476;-82
2020/12/26 08:26:01;;;;;;;9.05;1.60;;;20.80;99.90;;;;;;4975568;28;20039;-82
2020/12/26 08:28:29;;;;;;;10.68;1.58;;;20.80;99.90;;;;;;4973695;28;20435;-80
2020/12/26 08:31:02;;;;;;;10.27;1.17;;;20.80;99.90;;;;;;4976291;28;20022;-82
2020/12/26 08:33:31;;;;;;;10.23;2.08;;;20.70;99.90;;;;;;4957514;28;20384;-82
2020/12/26 08:36:07;;;;;;;7.00;0.70;;;20.70;99.90;;;;;;4975974;28;20476;-83
2020/12/26 08:38:40;;;;;;;10.13;1.17;;;20.80;99.90;;;;;;4973899;28;20031;-82
2020/12/26 08:41:11;;;;;;;6.70;1.10;;;20.80;99.90;;;;;;4975575;28;20488;-83
2020/12/26 08:43:39;;;;;;;12.30;1.23;;;20.80;99.90;;;;;;4974250;28;20165;-82
2020/12/26 08:46:23;;;;;;;8.32;1.02;;;20.80;99.90;;;;;;4976050;28;20043;-82
2020/12/26 08:48:52;;;;;;;;;;;20.80;99.90;;;;;;4957065;28;20035;-82
2020/12/26 08:51:26;;;;;;;13.57;1.60;;;20.80;99.90;;;;;;4956185;28;20336;-83
2020/12/26 08:53:58;;;;;;;9.82;1.95;;;20.80;99.90;;;;;;4975488;28;20079;-84
2020/12/26 08:56:39;;;;;;;12.75;1.65;;;20.80;99.90;;;;;;4973450;28;20030;-83
2020/12/26 08:59:06;;;;;;;11.90;1.40;;;20.80;99.90;;;;;;4957225;28;20034;-84
2020/12/26 09:01:35;;;;;;;8.30;1.73;;;20.80;99.90;;;;;;4973468;28;20112;-81
2020/12/26 09:04:02;;;;;;;8.40;1.10;;;20.80;99.90;;;;;;4973145;28;20054;-82
2020/12/26 09:06:43;;;;;;;8.95;1.55;;;20.80;99.90;;;;;;4973085;28;20037;-81
2020/12/26 09:09:26;;;;;;;9.35;1.30;;;20.90;99.90;;;;;;4975306;28;20018;-81
2020/12/26 09:12:05;;;;;;;10.65;1.73;;;20.80;99.90;;;;;;4970253;28;20023;-83
2020/12/26 09:14:32;;;;;;;11.75;1.52;;;20.60;99.90;;;;;;4974396;28;20029;-82
2020/12/26 09:17:05;;;;;;;9.75;1.40;;;20.40;99.90;;;;;;4957846;28;20031;-83
2020/12/26 09:19:49;;;;;;;14.75;2.80;;;20.10;99.90;;;;;;4998261;23;20066;-84
2020/12/26 09:22:16;;;;;;;8.73;1.50;;;19.80;99.90;;;;;;4999710;23;20054;-80
2020/12/26 09:24:44;;;;;;;10.70;1.50;;;19.50;99.90;;;;;;4975514;28;20066;-81
2020/12/26 09:27:22;;;;;;;9.20;1.50;;;19.40;99.90;;;;;;4993826;23;20063;-82
2020/12/26 09:29:54;;;;;;;11.15;1.63;;;19.40;99.90;;;;;;4938635;29;20384;-81
2020/12/26 09:32:22;;;;;;;10.23;2.38;;;19.30;99.90;;;;;;4946923;28;20027;-81
2020/12/26 09:34:50;;;;;;;15.40;2.40;;;19.30;99.90;;;;;;4935513;29;20063;-81
2020/12/26 09:37:17;;;;;;;13.75;2.45;;;19.30;99.90;;;;;;4970604;23;20058;-82
2020/12/26 09:39:44;;;;;;;17.23;2.53;;;19.40;99.90;;;;;;4975082;28;20034;-81
2020/12/26 09:42:11;;;;;;;9.30;1.67;;;19.40;99.90;;;;;;4972687;28;20022;-82
2020/12/26 09:44:39;;;;;;;10.57;1.73;;;19.30;99.90;;;;;;4974915;28;20139;-83
2020/12/26 09:47:06;;;;;;;13.55;1.95;;;19.20;99.90;;;;;;4972438;28;20114;-83
2020/12/26 09:49:33;;;;;;;11.43;2.40;;;19.10;99.90;;;;;;4974709;28;20086;-83
2020/12/26 09:52:01;;;;;;;11.88;2.25;;;19.00;99.90;;;;;;4980994;23;20106;-82
2020/12/26 09:54:28;;;;;;;11.32;1.90;;;19.00;99.90;;;;;;4993275;28;20026;-82
2020/12/26 09:56:55;;;;;;;10.50;2.22;;;18.90;99.90;;;;;;4976426;28;20105;-83
2020/12/26 09:59:23;;;;;;;7.47;2.17;;;18.90;99.90;;;;;;4976974;28;20032;-84
2020/12/26 10:01:50;;;;;;;10.18;1.67;;;18.90;99.90;;;;;;4989336;28;20030;-83
2020/12/26 10:04:17;;;;;;;14.02;1.85;;;18.80;99.90;;;;;;4975449;28;20037;-83
2020/12/26 10:06:45;;;;;;;14.93;2.58;;;18.70;99.90;;;;;;4959955;28;20093;-84
2020/12/26 10:09:12;;;;;;;9.30;2.03;;;18.60;99.90;;;;;;4994315;28;20026;-82
2020/12/26 10:11:39;;;;;;;9.75;1.73;;;18.60;99.90;;;;;;4971376;28;20027;-82
2020/12/26 10:14:07;;;;;;;10.70;1.73;;;18.60;99.90;;;;;;4974115;28;20029;-83
2020/12/26 10:16:34;;;;;;;7.15;1.25;;;18.60;99.90;;;;;;4957862;28;20085;-82
2020/12/26 10:19:01;;;;;;;12.10;1.45;;;18.60;99.90;;;;;;4993950;28;20026;-84
2020/12/26 10:21:28;;;;;;;9.15;1.65;;;18.70;99.90;;;;;;4991779;28;20029;-83
2020/12/26 10:23:55;;;;;;;9.68;1.63;;;18.60;99.90;;;;;;4973940;28;20538;-83
2020/12/26 10:26:23;;;;;;;8.18;1.83;;;18.70;99.90;;;;;;4999737;23;20137;-80
2020/12/26 10:28:50;;;;;;;13.27;2.05;;;18.70;99.90;;;;;;4981275;28;20019;-84
2020/12/26 10:31:17;;;;;;;8.20;1.67;;;18.70;99.90;;;;;;4974029;28;20026;-83
2020/12/26 10:33:44;;;;;;;8.13;2.58;;;18.70;99.90;;;;;;4973530;28;20027;-82
2020/12/26 10:36:12;;;;;;;13.30;2.08;;;18.90;99.90;;;;;;4973974;28;20023;-84
2020/12/26 10:38:39;;;;;;;15.02;2.10;;;19.00;99.90;;;;;;4968100;28;20394;-83
2020/12/26 10:41:06;;;;;;;10.75;2.28;;;19.00;99.90;;;;;;4954494;29;20452;-84
2020/12/26 10:43:34;;;;;;;14.00;2.28;;;19.00;99.90;;;;;;4956198;28;20063;-84
2020/12/26 10:46:02;;;;;;;16.02;3.28;;;19.00;99.90;;;;;;4937677;29;20039;-84
2020/12/26 10:48:29;;;;;;;12.77;1.55;;;19.00;99.90;;;;;;4971272;28;20038;-82
2020/12/26 10:50:56;;;;;;;13.73;2.22;;;19.00;99.90;;;;;;4973995;28;20085;-83
2020/12/26 10:53:23;;;;;;;17.75;2.22;;;18.90;99.90;;;;;;4958869;28;20537;-83
2020/12/26 10:55:50;;;;;;;12.25;2.60;;;18.80;99.90;;;;;;4954938;28;20035;-81
2020/12/26 10:58:18;;;;;;;16.63;1.90;;;18.80;99.90;;;;;;4969788;28;20038;-82
2020/12/26 11:00:46;;;;;;;16.10;2.30;;;18.80;99.90;;;;;;4974035;28;20110;-83
2020/12/26 11:03:13;;;;;;;18.10;2.50;;;18.70;99.90;;;;;;4972377;28;20475;-82
2020/12/26 11:05:41;;;;;;;12.48;3.00;;;18.70;99.90;;;;;;4972264;28;20038;-82
2020/12/26 11:08:08;;;;;;;11.10;2.20;;;18.70;99.90;;;;;;4972182;28;20061;-83
2020/12/26 11:10:35;;;;;;;14.80;2.55;;;18.70;99.90;;;;;;4973892;28;20365;-83
2020/12/26 11:13:03;;;;;;;9.75;1.77;;;18.70;99.90;;;;;;4972979;28;20487;-83
2020/12/26 11:15:30;;;;;;;12.00;1.73;;;18.70;99.90;;;;;;4972471;28;20065;-84
2020/12/26 11:17:57;;;;;;;14.32;1.85;;;18.70;99.90;;;;;;4966711;28;20033;-83
2020/12/26 11:20:24;;;;;;;8.02;1.65;;;18.80;99.90;;;;;;4973815;28;20051;-84
2020/12/26 11:22:52;;;;;;;8.75;1.90;;;18.80;99.90;;;;;;4972154;28;20058;-84
2020/12/26 11:25:19;;;;;;;9.93;1.35;;;18.70;99.90;;;;;;4973634;28;20480;-84
2020/12/26 11:27:46;;;;;;;12.52;1.13;;;18.80;99.90;;;;;;4992782;23;20120;-85
2020/12/26 11:30:13;;;;;;;12.05;1.77;;;18.80;99.90;;;;;;4989147;23;20419;-84
2020/12/26 11:32:41;;;;;;;6.63;1.20;;;18.80;99.90;;;;;;4971674;28;20154;-82
2020/12/26 11:35:08;;;;;;;17.55;2.03;;;18.70;99.90;;;;;;4975770;23;20065;-84
2020/12/26 11:37:35;;;;;;;14.70;1.67;;;18.70;99.90;;;;;;4981369;28;20062;-85
2020/12/26 11:40:03;;;;;;;10.55;1.90;;;18.70;99.90;;;;;;4973179;28;20123;-85
2020/12/26 11:42:31;;;;;;;13.10;1.88;;;18.70;99.90;;;;;;4981279;23;20062;-85
2020/12/26 11:44:58;;;;;;;11.73;1.65;;;18.80;99.90;;;;;;4971059;28;20030;-85
2020/12/26 11:47:25;;;;;;;12.93;1.83;;;18.70;99.90;;;;;;4971414;28;20022;-85
2020/12/26 11:49:52;;;;;;;10.85;2.03;;;18.70;99.90;;;;;;4973539;28;20050;-86
2020/12/26 11:52:20;;;;;;;11.25;1.75;;;18.70;99.90;;;;;;4954787;28;20043;-86
2020/12/26 11:54:47;;;;;;;11.73;1.63;;;18.70;99.90;;;;;;4955924;28;20181;-85
2020/12/26 11:57:14;;;;;;;14.63;1.77;;;18.60;99.90;;;;;;4971181;28;20046;-85
2020/12/26 11:59:41;;;;;;;13.05;2.33;;;18.70;99.90;;;;;;4963163;23;20572;-86
2020/12/26 12:02:09;;;;;;;14.35;3.05;;;18.60;99.90;;;;;;4953897;28;20027;-86
2020/12/26 12:04:36;;;;;;;13.10;1.90;;;18.60;99.90;;;;;;4971648;28;20022;-86
2020/12/26 12:07:03;;;;;;;11.88;2.78;;;18.50;99.90;;;;;;4969354;28;20039;-86
2020/12/26 12:09:30;;;;;;;16.00;2.60;;;18.60;99.90;;;;;;4973280;28;20035;-86
2020/12/26 12:11:58;;;;;;;9.65;2.33;;;18.50;99.90;;;;;;4970732;28;20112;-86
2020/12/26 12:14:25;;;;;;;17.35;2.75;;;18.50;99.90;;;;;;4972776;28;20019;-86
2020/12/26 12:16:52;;;;;;;12.60;1.73;;;18.50;99.90;;;;;;4973157;28;20026;-86
2020/12/26 12:19:20;;;;;;;19.98;3.20;;;18.40;99.90;;;;;;4975079;28;20033;-86
2020/12/26 12:21:47;;;;;;;15.70;2.25;;;18.50;99.90;;;;;;4974975;28;20436;-86
2020/12/26 12:24:14;;;;;;;15.63;1.77;;;18.50;99.90;;;;;;4975287;28;20484;-86
2020/12/26 12:26:42;;;;;;;14.25;2.10;;;18.40;99.90;;;;;;4974222;28;20043;-85
2020/12/26 12:29:09;;;;;;;11.32;1.70;;;18.40;99.90;;;;;;4976529;28;20027;-86
2020/12/26 12:31:38;;;;;;;9.27;1.80;;;18.40;99.90;;;;;;4974008;28;20535;-86
2020/12/26 12:34:07;;;;;;;17.58;2.65;;;18.40;99.90;;;;;;4998816;23;20054;-86
2020/12/26 12:36:34;;;;;;;10.50;1.45;;;18.50;99.90;;;;;;4992377;28;20031;-85
2020/12/26 12:39:03;;;;;;;14.95;2.15;;;18.40;99.90;;;;;;4958477;28;20078;-85
2020/12/26 12:41:31;;;;;;;15.38;2.28;;;18.40;99.90;;;;;;4976027;28;20031;-85
2020/12/26 12:43:58;;;;;;;21.70;2.70;;;18.40;99.90;;;;;;4975543;28;20096;-86
2020/12/26 12:46:25;;;;;;;16.90;2.22;;;18.40;99.90;;;;;;4975119;28;20081;-86
2020/12/26 12:48:52;;;;;;;16.35;2.83;;;18.40;99.90;;;;;;4975995;28;20108;-85
2020/12/26 12:51:20;;;;;;;14.38;1.88;;;18.40;99.90;;;;;;4975846;28;20026;-86
2020/12/26 12:53:47;;;;;;;23.65;1.98;;;18.50;99.90;;;;;;4975976;28;20023;-85